sensor_id;sensor_type;location;lat;lon;timestamp;pressure;altitude;pressure_sealevel;temperature;humidity
2761;BME280;15420;48.636;9.798;2023-03-23T00:01:17;96157.53;;;12.94;64.90
2761;BME280;15420;48.636;9.798;2023-03-23T00:03:46;96163.56;;;12.95;65.06
2761;BME280;15420;48.636;9.798;2023-03-23T00:06:16;96159.25;;;12.95;64.95
2761;BME280;15420;48.636;9.798;2023-03-23T00:08:50;96152.38;;;12.97;64.90
2761;BME280;15420;48.636;9.798;2023-03-23T00:11:26;96151.50;;;12.98;64.72
2761;BME280;15420;48.636;9.798;2023-03-23T00:13:56;96136.00;;;12.98;63.14
2761;BME280;15420;48.636;9.798;2023-03-23T00:16:25;96143.75;;;12.97;65.34
2761;BME280;15420;48.636;9.798;2023-03-23T00:19:01;96142.91;;;12.98;64.46
2761;BME280;15420;48.636;9.798;2023-03-23T00:21:30;96148.06;;;12.96;64.71
2761;BME280;15420;48.636;9.798;2023-03-23T00:24:06;96153.25;;;12.99;63.38
2761;BME280;15420;48.636;9.798;2023-03-23T00:26:34;96160.13;;;13.00;64.44
2761;BME280;15420;48.636;9.798;2023-03-23T00:29:07;96160.13;;;13.02;63.16
2761;BME280;15420;48.636;9.798;2023-03-23T00:31:36;96165.31;;;13.02;63.57
2761;BME280;15420;48.636;9.798;2023-03-23T00:34:05;96154.97;;;13.00;64.18
2761;BME280;15420;48.636;9.798;2023-03-23T00:36:34;96148.06;;;12.99;65.31
2761;BME280;15420;48.636;9.798;2023-03-23T00:39:04;96142.91;;;13.02;64.42
2761;BME280;15420;48.636;9.798;2023-03-23T00:41:33;96154.09;;;13.04;64.29
2761;BME280;15420;48.636;9.798;2023-03-23T00:44:02;96137.72;;;13.05;64.34
2761;BME280;15420;48.636;9.798;2023-03-23T00:46:29;96123.06;;;13.03;64.67
2761;BME280;15420;48.636;9.798;2023-03-23T00:48:56;96119.63;;;13.04;63.67
2761;BME280;15420;48.636;9.798;2023-03-23T00:51:26;96129.97;;;13.05;64.03
2761;BME280;15420;48.636;9.798;2023-03-23T00:53:55;96127.38;;;13.05;64.33
2761;BME280;15420;48.636;9.798;2023-03-23T00:56:21;96123.94;;;13.06;65.10
2761;BME280;15420;48.636;9.798;2023-03-23T00:58:51;96127.38;;;13.05;64.15
2761;BME280;15420;48.636;9.798;2023-03-23T01:01:17;96128.25;;;13.07;65.05
2761;BME280;15420;48.636;9.798;2023-03-23T01:03:44;96117.03;;;13.08;64.60
2761;BME280;15420;48.636;9.798;2023-03-23T01:06:11;96120.50;;;13.10;64.29
2761;BME280;15420;48.636;9.798;2023-03-23T01:08:40;96118.75;;;13.09;64.59
2761;BME280;15420;48.636;9.798;2023-03-23T01:11:15;96114.44;;;13.10;64.12
2761;BME280;15420;48.636;9.798;2023-03-23T01:13:42;96115.31;;;13.07;64.63
2761;BME280;15420;48.636;9.798;2023-03-23T01:16:11;96098.94;;;13.08;63.71
2761;BME280;15420;48.636;9.798;2023-03-23T01:18:40;96095.47;;;13.13;64.84
2761;BME280;15420;48.636;9.798;2023-03-23T01:21:12;96093.75;;;13.10;64.61
2761;BME280;15420;48.636;9.798;2023-03-23T01:23:40;96098.06;;;13.13;63.81
2761;BME280;15420;48.636;9.798;2023-03-23T01:26:09;96094.63;;;13.12;64.10
2761;BME280;15420;48.636;9.798;2023-03-23T01:28:37;96090.31;;;13.09;65.71
2761;BME280;15420;48.636;9.798;2023-03-23T01:31:05;96080.81;;;13.12;64.87
2761;BME280;15420;48.636;9.798;2023-03-23T01:33:32;96078.25;;;13.10;63.98
2761;BME280;15420;48.636;9.798;2023-03-23T01:36:03;96082.56;;;13.13;63.24
2761;BME280;15420;48.636;9.798;2023-03-23T01:38:29;96081.69;;;13.14;63.15
2761;BME280;15420;48.636;9.798;2023-03-23T01:40:56;96086.84;;;13.15;62.98
2761;BME280;15420;48.636;9.798;2023-03-23T01:43:23;96082.59;;;13.17;62.76
2761;BME280;15420;48.636;9.798;2023-03-23T01:45:51;96091.22;;;13.18;63.11
2761;BME280;15420;48.636;9.798;2023-03-23T01:51:12;96080.84;;;13.19;62.90
2761;BME280;15420;48.636;9.798;2023-03-23T01:53:47;96080.84;;;13.21;63.94
2761;BME280;15420;48.636;9.798;2023-03-23T01:56:16;96080.84;;;13.19;64.22
2761;BME280;15420;48.636;9.798;2023-03-23T01:58:49;96073.09;;;13.22;62.83
2761;BME280;15420;48.636;9.798;2023-03-23T02:01:24;96080.84;;;13.18;63.94
2761;BME280;15420;48.636;9.798;2023-03-23T02:03:52;96078.28;;;13.21;64.84
2761;BME280;15420;48.636;9.798;2023-03-23T02:06:18;96079.13;;;13.23;64.02
2761;BME280;15420;48.636;9.798;2023-03-23T02:08:45;96080.84;;;13.24;65.14
2761;BME280;15420;48.636;9.798;2023-03-23T02:11:17;96078.25;;;13.25;64.10
2761;BME280;15420;48.636;9.798;2023-03-23T02:13:47;96078.28;;;13.22;64.27
2761;BME280;15420;48.636;9.798;2023-03-23T02:22:00;96069.63;;;13.26;64.96
2761;BME280;15420;48.636;9.798;2023-03-23T02:41:24;96063.59;;;13.29;63.83
2761;BME280;15420;48.636;9.798;2023-03-23T02:43:55;96063.59;;;13.32;62.96
2761;BME280;15420;48.636;9.798;2023-03-23T02:46:25;96052.38;;;13.30;64.07
2761;BME280;15420;48.636;9.798;2023-03-23T02:49:00;96060.16;;;13.30;62.86
2761;BME280;15420;48.636;9.798;2023-03-23T02:51:32;96055.84;;;13.30;63.24
2761;BME280;15420;48.636;9.798;2023-03-23T02:54:07;96066.19;;;13.33;64.32
2761;BME280;15420;48.636;9.798;2023-03-23T02:56:35;96066.19;;;13.33;64.30
2761;BME280;15420;48.636;9.798;2023-03-23T02:59:02;96069.63;;;13.34;63.26
2761;BME280;15420;48.636;9.798;2023-03-23T03:04:18;96065.31;;;13.37;64.50
2761;BME280;15420;48.636;9.798;2023-03-23T03:09:45;96052.38;;;13.39;63.85
2761;BME280;15420;48.636;9.798;2023-03-23T03:18:18;96029.06;;;13.44;61.93
2761;BME280;15420;48.636;9.798;2023-03-23T03:20:51;96029.94;;;13.46;61.95
2761;BME280;15420;48.636;9.798;2023-03-23T03:23:21;96038.56;;;13.46;60.00
2761;BME280;15420;48.636;9.798;2023-03-23T03:25:49;96035.09;;;13.50;60.74
2761;BME280;15420;48.636;9.798;2023-03-23T03:28:20;96026.44;;;13.53;60.91
2761;BME280;15420;48.636;9.798;2023-03-23T03:31:00;96025.56;;;13.58;60.22
2761;BME280;15420;48.636;9.798;2023-03-23T03:33:29;96027.28;;;13.58;59.70
2761;BME280;15420;48.636;9.798;2023-03-23T03:36:00;96027.28;;;13.61;60.52
2761;BME280;15420;48.636;9.798;2023-03-23T03:38:29;96024.66;;;13.64;59.96
2761;BME280;15420;48.636;9.798;2023-03-23T03:40:56;96025.53;;;13.66;59.13
2761;BME280;15420;48.636;9.798;2023-03-23T03:43:23;96029.84;;;13.68;59.30
2761;BME280;15420;48.636;9.798;2023-03-23T03:45:49;96016.00;;;13.71;59.92
2761;BME280;15420;48.636;9.798;2023-03-23T03:48:20;96024.63;;;13.74;58.74
2761;BME280;15420;48.636;9.798;2023-03-23T03:50:51;96022.88;;;13.78;59.64
2761;BME280;15420;48.636;9.798;2023-03-23T03:53:20;96017.72;;;13.80;59.45
2761;BME280;15420;48.636;9.798;2023-03-23T03:55:47;96022.88;;;13.83;59.27
2761;BME280;15420;48.636;9.798;2023-03-23T03:58:16;96009.91;;;13.86;58.88
2761;BME280;15420;48.636;9.798;2023-03-23T04:00:48;96001.28;;;13.87;58.16
2761;BME280;15420;48.636;9.798;2023-03-23T04:03:19;96010.75;;;13.88;57.52
2761;BME280;15420;48.636;9.798;2023-03-23T04:05:45;96015.06;;;13.93;57.87
2761;BME280;15420;48.636;9.798;2023-03-23T04:08:12;96012.44;;;13.99;58.38
2761;BME280;15420;48.636;9.798;2023-03-23T04:10:38;96014.16;;;14.03;57.56
2761;BME280;15420;48.636;9.798;2023-03-23T04:13:05;96007.22;;;14.07;58.08
2761;BME280;15420;48.636;9.798;2023-03-23T04:15:32;96004.63;;;14.10;57.69
2761;BME280;15420;48.636;9.798;2023-03-23T04:17:59;96006.34;;;14.08;58.70
2761;BME280;15420;48.636;9.798;2023-03-23T04:20:27;96008.06;;;14.12;58.18
2761;BME280;15420;48.636;9.798;2023-03-23T04:22:53;96002.88;;;14.12;57.78
2761;BME280;15420;48.636;9.798;2023-03-23T04:25:21;96006.31;;;14.16;58.26
2761;BME280;15420;48.636;9.798;2023-03-23T04:27:51;96008.88;;;14.17;58.11
2761;BME280;15420;48.636;9.798;2023-03-23T04:30:22;96004.56;;;14.21;57.51
2761;BME280;15420;48.636;9.798;2023-03-23T04:32:51;96004.53;;;14.22;58.22
2761;BME280;15420;48.636;9.798;2023-03-23T04:35:19;96011.44;;;14.26;58.00
2761;BME280;15420;48.636;9.798;2023-03-23T04:37:47;96015.75;;;14.26;57.83
2761;BME280;15420;48.636;9.798;2023-03-23T04:40:14;96007.97;;;14.27;57.60
2761;BME280;15420;48.636;9.798;2023-03-23T04:42:42;96007.09;;;14.30;57.84
2761;BME280;15420;48.636;9.798;2023-03-23T04:45:18;96004.50;;;14.28;58.48
2761;BME280;15420;48.636;9.798;2023-03-23T04:47:52;95996.69;;;14.33;57.88
2761;BME280;15420;48.636;9.798;2023-03-23T04:50:25;95992.38;;;14.35;58.00
2761;BME280;15420;48.636;9.798;2023-03-23T04:52:52;96001.88;;;14.33;58.24
2761;BME280;15420;48.636;9.798;2023-03-23T04:55:20;96001.84;;;14.39;57.54
2761;BME280;15420;48.636;9.798;2023-03-23T04:57:46;96003.56;;;14.40;57.75
2761;BME280;15420;48.636;9.798;2023-03-23T05:00:13;96005.31;;;14.43;58.34
2761;BME280;15420;48.636;9.798;2023-03-23T05:02:43;95998.41;;;14.43;58.29
2761;BME280;15420;48.636;9.798;2023-03-23T05:05:13;95996.66;;;14.44;58.04
2761;BME280;15420;48.636;9.798;2023-03-23T05:07:41;96002.72;;;14.44;57.52
2761;BME280;15420;48.636;9.798;2023-03-23T05:10:09;95997.50;;;14.47;57.54
2761;BME280;15420;48.636;9.798;2023-03-23T05:12:37;96000.97;;;14.46;57.75
2761;BME280;15420;48.636;9.798;2023-03-23T05:15:10;95989.69;;;14.52;57.88
2761;BME280;15420;48.636;9.798;2023-03-23T05:17:37;95998.31;;;14.54;57.51
2761;BME280;15420;48.636;9.798;2023-03-23T05:20:05;95989.72;;;14.50;57.66
2761;BME280;15420;48.636;9.798;2023-03-23T05:22:37;95999.19;;;14.56;57.92
2761;BME280;15420;48.636;9.798;2023-03-23T05:25:06;95991.41;;;14.53;57.79
2761;BME280;15420;48.636;9.798;2023-03-23T05:27:37;95982.78;;;14.52;58.31
2761;BME280;15420;48.636;9.798;2023-03-23T05:30:07;95987.91;;;14.57;58.01
2761;BME280;15420;48.636;9.798;2023-03-23T05:32:33;95995.66;;;14.58;58.22
2761;BME280;15420;48.636;9.798;2023-03-23T05:35:00;95995.66;;;14.58;58.38
2761;BME280;15420;48.636;9.798;2023-03-23T05:37:27;96011.22;;;14.60;58.40
2761;BME280;15420;48.636;9.798;2023-03-23T05:40:03;96002.56;;;14.59;58.10
2761;BME280;15420;48.636;9.798;2023-03-23T05:42:33;96009.47;;;14.62;58.21
2761;BME280;15420;48.636;9.798;2023-03-23T05:45:05;96004.25;;;14.65;58.19
2761;BME280;15420;48.636;9.798;2023-03-23T05:47:36;96005.13;;;14.65;58.03
2761;BME280;15420;48.636;9.798;2023-03-23T05:50:03;96002.53;;;14.64;58.28
2761;BME280;15420;48.636;9.798;2023-03-23T05:52:29;96013.78;;;14.64;58.84
2761;BME280;15420;48.636;9.798;2023-03-23T05:55:01;96015.47;;;14.68;58.92
2761;BME280;15420;48.636;9.798;2023-03-23T05:57:29;96005.09;;;14.70;58.62
2761;BME280;15420;48.636;9.798;2023-03-23T05:59:57;96004.22;;;14.69;58.97
2761;BME280;15420;48.636;9.798;2023-03-23T06:02:25;96009.41;;;14.71;58.29
2761;BME280;15420;48.636;9.798;2023-03-23T06:04:55;96011.97;;;14.72;58.94
2761;BME280;15420;48.636;9.798;2023-03-23T06:07:25;96018.03;;;14.71;59.10
2761;BME280;15420;48.636;9.798;2023-03-23T06:09:54;96005.91;;;14.73;59.24
2761;BME280;15420;48.636;9.798;2023-03-23T06:12:26;96017.13;;;14.77;59.02
2761;BME280;15420;48.636;9.798;2023-03-23T06:14:57;96024.91;;;14.77;58.96
2761;BME280;15420;48.636;9.798;2023-03-23T06:17:26;96026.63;;;14.78;58.83
2761;BME280;15420;48.636;9.798;2023-03-23T06:19:52;96022.31;;;14.79;58.68
2761;BME280;15420;48.636;9.798;2023-03-23T06:22:24;96036.13;;;14.81;59.14
2761;BME280;15420;48.636;9.798;2023-03-23T06:24:50;96030.06;;;14.82;59.07
2761;BME280;15420;48.636;9.798;2023-03-23T06:27:19;96043.88;;;14.84;58.63
2761;BME280;15420;48.636;9.798;2023-03-23T06:29:45;96036.97;;;14.84;58.47
2761;BME280;15420;48.636;9.798;2023-03-23T06:32:12;96041.25;;;14.87;58.91
2761;BME280;15420;48.636;9.798;2023-03-23T06:34:40;96039.53;;;14.86;59.12
2761;BME280;15420;48.636;9.798;2023-03-23T06:37:09;96045.56;;;14.89;58.60
2761;BME280;15420;48.636;9.798;2023-03-23T06:39:36;96049.00;;;14.91;58.81
2761;BME280;15420;48.636;9.798;2023-03-23T06:42:04;96045.56;;;14.91;58.37
2761;BME280;15420;48.636;9.798;2023-03-23T06:44:31;96051.56;;;14.94;58.04
2761;BME280;15420;48.636;9.798;2023-03-23T06:46:59;96047.25;;;14.96;57.43
2761;BME280;15420;48.636;9.798;2023-03-23T06:49:26;96052.41;;;14.99;57.22
2761;BME280;15420;48.636;9.798;2023-03-23T06:51:52;96048.91;;;15.02;57.35
2761;BME280;15420;48.636;9.798;2023-03-23T06:54:21;96049.75;;;15.05;57.28
2761;BME280;15420;48.636;9.798;2023-03-23T06:56:47;96059.25;;;15.08;56.82
2761;BME280;15420;48.636;9.798;2023-03-23T06:59:18;96051.44;;;15.11;56.09
2761;BME280;15420;48.636;9.798;2023-03-23T07:01:45;96054.88;;;15.13;56.59
2761;BME280;15420;48.636;9.798;2023-03-23T07:04:12;96053.13;;;15.15;56.92
2761;BME280;15420;48.636;9.798;2023-03-23T07:06:41;96059.16;;;15.20;56.07
2761;BME280;15420;48.636;9.798;2023-03-23T07:09:09;96061.72;;;15.22;56.04
2761;BME280;15420;48.636;9.798;2023-03-23T07:11:40;96056.50;;;15.25;55.74
2761;BME280;15420;48.636;9.798;2023-03-23T07:14:07;96048.69;;;15.28;55.93
2761;BME280;15420;48.636;9.798;2023-03-23T07:16:33;96053.00;;;15.30;56.08
2761;BME280;15420;48.636;9.798;2023-03-23T07:19:00;96052.09;;;15.33;56.07
2761;BME280;15420;48.636;9.798;2023-03-23T07:21:26;96057.28;;;15.34;56.21
2761;BME280;15420;48.636;9.798;2023-03-23T07:23:55;96063.31;;;15.38;55.97
2761;BME280;15420;48.636;9.798;2023-03-23T07:26:21;96059.81;;;15.41;56.12
2761;BME280;15420;48.636;9.798;2023-03-23T07:28:48;96067.59;;;15.44;55.83
2761;BME280;15420;48.636;9.798;2023-03-23T07:31:16;96057.19;;;15.45;56.25
2761;BME280;15420;48.636;9.798;2023-03-23T07:33:43;96072.72;;;15.48;55.61
2761;BME280;15420;48.636;9.798;2023-03-23T07:36:09;96059.72;;;15.50;55.92
2761;BME280;15420;48.636;9.798;2023-03-23T07:38:38;96054.50;;;15.53;55.76
2761;BME280;15420;48.636;9.798;2023-03-23T07:41:09;96070.06;;;15.56;55.93
2761;BME280;15420;48.636;9.798;2023-03-23T07:43:38;96068.31;;;15.59;56.20
2761;BME280;15420;48.636;9.798;2023-03-23T07:46:04;96070.88;;;15.61;55.75
2761;BME280;15420;48.636;9.798;2023-03-23T07:48:33;96074.31;;;15.64;56.00
2761;BME280;15420;48.636;9.798;2023-03-23T07:50:59;96080.34;;;15.65;56.09
2761;BME280;15420;48.636;9.798;2023-03-23T07:53:26;96082.91;;;15.68;55.91
2761;BME280;15420;48.636;9.798;2023-03-23T07:55:53;96083.75;;;15.70;55.03
2761;BME280;15420;48.636;9.798;2023-03-23T07:58:21;96081.97;;;15.75;55.22
2761;BME280;15420;48.636;9.798;2023-03-23T08:00:52;96078.50;;;15.76;55.30
2761;BME280;15420;48.636;9.798;2023-03-23T08:03:26;96080.22;;;15.79;54.81
2761;BME280;15420;48.636;9.798;2023-03-23T08:05:52;96089.72;;;15.80;55.25
2761;BME280;15420;48.636;9.798;2023-03-23T08:08:20;96090.56;;;15.82;55.94
2761;BME280;15420;48.636;9.798;2023-03-23T08:10:46;96094.00;;;15.85;56.00
2761;BME280;15420;48.636;9.798;2023-03-23T08:13:15;96094.84;;;15.87;55.59
2761;BME280;15420;48.636;9.798;2023-03-23T08:15:44;96079.22;;;15.90;55.97
2761;BME280;15420;48.636;9.798;2023-03-23T08:18:11;96074.84;;;15.94;56.40
2761;BME280;15420;48.636;9.798;2023-03-23T08:20:37;96083.47;;;15.96;55.21
2761;BME280;15420;48.636;9.798;2023-03-23T08:23:03;96089.50;;;15.99;54.40
2761;BME280;15420;48.636;9.798;2023-03-23T08:25:30;96089.44;;;16.04;54.36
2761;BME280;15420;48.636;9.798;2023-03-23T08:28:00;96098.91;;;16.10;54.74
2761;BME280;15420;48.636;9.798;2023-03-23T08:30:30;96098.88;;;16.14;54.16
2761;BME280;15420;48.636;9.798;2023-03-23T08:33:03;96104.84;;;16.21;53.35
2761;BME280;15420;48.636;9.798;2023-03-23T08:35:32;96104.78;;;16.25;52.98
2761;BME280;15420;48.636;9.798;2023-03-23T08:37:58;96093.47;;;16.29;53.92
2761;BME280;15420;48.636;9.798;2023-03-23T08:40:25;96096.88;;;16.34;53.94
2761;BME280;15420;48.636;9.798;2023-03-23T08:42:52;96095.94;;;16.40;53.45
2761;BME280;15420;48.636;9.798;2023-03-23T08:45:21;96098.47;;;16.45;53.41
2761;BME280;15420;48.636;9.798;2023-03-23T08:47:49;96103.59;;;16.51;53.42
2761;BME280;15420;48.636;9.798;2023-03-23T08:50:21;96099.19;;;16.56;53.12
2761;BME280;15420;48.636;9.798;2023-03-23T08:52:49;96109.53;;;16.62;52.67
2761;BME280;15420;48.636;9.798;2023-03-23T08:55:18;96110.31;;;16.68;52.58
2761;BME280;15420;48.636;9.798;2023-03-23T08:57:50;96113.69;;;16.75;52.81
2761;BME280;15420;48.636;9.798;2023-03-23T09:00:19;96113.59;;;16.81;52.74
2761;BME280;15420;48.636;9.798;2023-03-23T09:02:48;96111.78;;;16.86;51.78
2761;BME280;15420;48.636;9.798;2023-03-23T09:05:20;96107.34;;;16.93;52.87
2761;BME280;15420;48.636;9.798;2023-03-23T09:07:51;96112.50;;;16.97;53.11
2761;BME280;15420;48.636;9.798;2023-03-23T09:10:19;96110.66;;;17.04;52.02
2761;BME280;15420;48.636;9.798;2023-03-23T09:12:49;96108.84;;;17.09;52.23
2761;BME280;15420;48.636;9.798;2023-03-23T09:15:17;96109.59;;;17.16;52.96
2761;BME280;15420;48.636;9.798;2023-03-23T09:17:47;96124.25;;;17.23;52.08
2761;BME280;15420;48.636;9.798;2023-03-23T09:20:22;96128.53;;;17.27;52.71
2761;BME280;15420;48.636;9.798;2023-03-23T09:22:51;96133.72;;;17.28;51.66
2761;BME280;15420;48.636;9.798;2023-03-23T09:25:20;96139.75;;;17.30;51.47
2761;BME280;15420;48.636;9.798;2023-03-23T09:27:50;96150.13;;;17.33;52.57
2761;BME280;15420;48.636;9.798;2023-03-23T09:30:19;96146.59;;;17.36;52.31
2761;BME280;15420;48.636;9.798;2023-03-23T09:32:46;96150.91;;;17.39;51.80
2761;BME280;15420;48.636;9.798;2023-03-23T09:35:15;96163.03;;;17.40;51.28
2761;BME280;15420;48.636;9.798;2023-03-23T09:37:44;96148.22;;;17.43;51.62
2761;BME280;15420;48.636;9.798;2023-03-23T09:40:14;96158.56;;;17.48;52.32
2761;BME280;15420;48.636;9.798;2023-03-23T09:48:52;96168.78;;;17.60;52.48
2761;BME280;15420;48.636;9.798;2023-03-23T09:54:17;96177.41;;;17.63;52.88
2761;BME280;15420;48.636;9.798;2023-03-23T09:56:51;96177.41;;;17.63;53.71
2761;BME280;15420;48.636;9.798;2023-03-23T10:02:14;96178.22;;;17.69;53.37
2761;BME280;15420;48.636;9.798;2023-03-23T10:04:55;96172.91;;;17.73;53.23
2761;BME280;15420;48.636;9.798;2023-03-23T10:07:27;96152.06;;;17.73;53.38
2761;BME280;15420;48.636;9.798;2023-03-23T10:10:01;96157.25;;;17.75;52.46
2761;BME280;15420;48.636;9.798;2023-03-23T10:12:58;96171.97;;;17.77;54.03
2761;BME280;15420;48.636;9.798;2023-03-23T10:15:34;96171.16;;;17.75;52.21
2761;BME280;15420;48.636;9.798;2023-03-23T10:18:41;96169.31;;;17.80;53.53
2761;BME280;15420;48.636;9.798;2023-03-23T10:21:15;96175.44;;;17.78;53.20
2761;BME280;15420;48.636;9.798;2023-03-23T10:31:44;96180.69;;;17.76;52.58
2761;BME280;15420;48.636;9.798;2023-03-23T10:34:21;96189.38;;;17.77;53.24
2761;BME280;15420;48.636;9.798;2023-03-23T10:37:13;96180.63;;;17.79;53.04
2761;BME280;15420;48.636;9.798;2023-03-23T10:39:53;96156.31;;;17.79;53.31
2761;BME280;15420;48.636;9.798;2023-03-23T10:42:36;96175.41;;;17.79;53.56
2761;BME280;15420;48.636;9.798;2023-03-23T10:48:00;96196.13;;;17.87;53.57
2761;BME280;15420;48.636;9.798;2023-03-23T10:50:34;96189.13;;;17.90;53.14
2761;BME280;15420;48.636;9.798;2023-03-23T10:53:03;96178.66;;;17.93;53.03
2761;BME280;15420;48.636;9.798;2023-03-23T10:55:39;96184.69;;;17.95;53.31
2761;BME280;15420;48.636;9.798;2023-03-23T10:58:12;96181.19;;;17.96;52.85
2761;BME280;15420;48.636;9.798;2023-03-23T11:00:44;96194.16;;;18.01;53.83
2761;BME280;15420;48.636;9.798;2023-03-23T11:05:54;96180.16;;;18.07;52.53
2761;BME280;15420;48.636;9.798;2023-03-23T11:08:28;96186.19;;;18.09;53.46
2761;BME280;15420;48.636;9.798;2023-03-23T11:11:10;96192.16;;;18.15;53.49
2761;BME280;15420;48.636;9.798;2023-03-23T11:13:41;96178.19;;;18.19;53.71
2761;BME280;15420;48.636;9.798;2023-03-23T11:16:10;96189.44;;;18.21;53.77
2761;BME280;15420;48.636;9.798;2023-03-23T11:18:41;96194.56;;;18.26;54.42
2761;BME280;15420;48.636;9.798;2023-03-23T11:21:13;96196.28;;;18.27;56.39
2761;BME280;15420;48.636;9.798;2023-03-23T11:23:57;96197.13;;;18.29;56.15
2761;BME280;15420;48.636;9.798;2023-03-23T11:26:34;96195.34;;;18.31;57.22
2761;BME280;15420;48.636;9.798;2023-03-23T11:31:48;96196.22;;;18.30;57.34
2761;BME280;15420;48.636;9.798;2023-03-23T11:34:26;96200.47;;;18.36;57.31
2761;BME280;15420;48.636;9.798;2023-03-23T11:37:02;96197.00;;;18.35;56.54
2761;BME280;15420;48.636;9.798;2023-03-23T11:39:45;96202.19;;;18.37;56.00
2761;BME280;15420;48.636;9.798;2023-03-23T11:51:04;96187.16;;;18.49;56.64
2761;BME280;15420;48.636;9.798;2023-03-23T11:53:53;96180.00;;;18.59;57.80
2761;BME280;15420;48.636;9.798;2023-03-23T11:56:41;96173.81;;;18.66;57.56
2761;BME280;15420;48.636;9.798;2023-03-23T11:59:33;96171.84;;;18.76;57.85
2761;BME280;15420;48.636;9.798;2023-03-23T12:08:02;96172.88;;;19.09;58.15
2761;BME280;15420;48.636;9.798;2023-03-23T12:10:29;96162.97;;;19.23;57.12
2761;BME280;15420;48.636;9.798;2023-03-23T12:13:21;96165.97;;;19.43;55.55
2761;BME280;15420;48.636;9.798;2023-03-23T12:21:24;96166.13;;;20.07;54.36
2761;BME280;15420;48.636;9.798;2023-03-23T12:41:04;96141.88;;;20.93;48.46
2761;BME280;15420;48.636;9.798;2023-03-23T12:43:21;96134.81;;;20.95;47.10
2761;BME280;15420;48.636;9.798;2023-03-23T12:49:15;96148.81;;;20.94;46.77
2761;BME280;15420;48.636;9.798;2023-03-23T13:08:01;96132.75;;;20.78;46.39
2761;BME280;15420;48.636;9.798;2023-03-23T13:10:44;96114.69;;;20.69;45.92
2761;BME280;15420;48.636;9.798;2023-03-23T13:13:23;96118.19;;;20.68;47.02
2761;BME280;15420;48.636;9.798;2023-03-23T13:16:04;96118.34;;;20.64;47.02
2761;BME280;15420;48.636;9.798;2023-03-23T13:23:45;96111.69;;;20.52;46.37
2761;BME280;15420;48.636;9.798;2023-03-23T13:26:19;96106.63;;;20.46;46.64
2761;BME280;15420;48.636;9.798;2023-03-23T13:34:22;96099.88;;;20.39;46.00
2761;BME280;15420;48.636;9.798;2023-03-23T13:36:58;96115.56;;;20.37;46.74
2761;BME280;15420;48.636;9.798;2023-03-23T13:39:31;96104.34;;;20.34;47.66
2761;BME280;15420;48.636;9.798;2023-03-23T13:47:35;96089.41;;;20.37;48.60
2761;BME280;15420;48.636;9.798;2023-03-23T13:50:28;96088.53;;;20.38;47.71
2761;BME280;15420;48.636;9.798;2023-03-23T13:53:01;96098.97;;;20.40;46.76
2761;BME280;15420;48.636;9.798;2023-03-23T13:55:47;96089.25;;;20.43;47.36
2761;BME280;15420;48.636;9.798;2023-03-23T13:58:25;96088.22;;;20.49;47.27
2761;BME280;15420;48.636;9.798;2023-03-23T14:03:45;96084.00;;;20.45;45.95
2761;BME280;15420;48.636;9.798;2023-03-23T14:06:20;96084.84;;;20.45;45.57
2761;BME280;15420;48.636;9.798;2023-03-23T14:08:53;96077.84;;;20.46;45.38
2761;BME280;15420;48.636;9.798;2023-03-23T14:11:22;96073.50;;;20.45;45.56
2761;BME280;15420;48.636;9.798;2023-03-23T14:16:51;96070.13;;;20.41;44.97
2761;BME280;15420;48.636;9.798;2023-03-23T14:19:28;96064.94;;;20.40;44.52
2761;BME280;15420;48.636;9.798;2023-03-23T14:21:58;96065.78;;;20.40;44.79
2761;BME280;15420;48.636;9.798;2023-03-23T14:24:27;96071.88;;;20.41;45.19
2761;BME280;15420;48.636;9.798;2023-03-23T14:27:08;96068.28;;;20.45;44.60
2761;BME280;15420;48.636;9.798;2023-03-23T14:29:37;96066.69;;;20.39;45.27
2761;BME280;15420;48.636;9.798;2023-03-23T14:32:10;96064.97;;;20.38;44.40
2761;BME280;15420;48.636;9.798;2023-03-23T14:34:39;96066.75;;;20.36;45.20
2761;BME280;15420;48.636;9.798;2023-03-23T14:37:14;96068.50;;;20.36;44.74
2761;BME280;15420;48.636;9.798;2023-03-23T14:39:51;96069.38;;;20.36;44.86
2761;BME280;15420;48.636;9.798;2023-03-23T14:42:27;96081.69;;;20.33;45.44
2761;BME280;15420;48.636;9.798;2023-03-23T14:44:54;96071.25;;;20.31;44.80
2761;BME280;15420;48.636;9.798;2023-03-23T14:47:24;96072.22;;;20.29;44.72
2761;BME280;15420;48.636;9.798;2023-03-23T14:49:57;96079.28;;;20.25;44.46
2761;BME280;15420;48.636;9.798;2023-03-23T14:52:28;96079.28;;;20.25;44.20
2761;BME280;15420;48.636;9.798;2023-03-23T14:55:06;96068.06;;;20.21;45.14
2761;BME280;15420;48.636;9.798;2023-03-23T14:57:35;96075.16;;;20.16;43.93
2761;BME280;15420;48.636;9.798;2023-03-23T15:00:11;96064.78;;;20.13;44.93
2761;BME280;15420;48.636;9.798;2023-03-23T15:02:39;96073.59;;;20.11;44.55
2761;BME280;15420;48.636;9.798;2023-03-23T15:05:19;96070.13;;;20.10;44.53
2761;BME280;15420;48.636;9.798;2023-03-23T15:07:51;96062.44;;;20.04;44.68
2761;BME280;15420;48.636;9.798;2023-03-23T15:10:28;96059.91;;;20.01;45.15
2761;BME280;15420;48.636;9.798;2023-03-23T15:12:55;96061.75;;;19.98;44.64
2761;BME280;15420;48.636;9.798;2023-03-23T15:15:29;96066.97;;;19.98;45.10
2761;BME280;15420;48.636;9.798;2023-03-23T15:17:59;96062.69;;;19.95;45.40
2761;BME280;15420;48.636;9.798;2023-03-23T15:20:43;96061.84;;;19.95;45.58
2761;BME280;15420;48.636;9.798;2023-03-23T15:23:16;96059.25;;;19.93;45.51
2761;BME280;15420;48.636;9.798;2023-03-23T15:25:52;96061.06;;;19.91;45.61
2761;BME280;15420;48.636;9.798;2023-03-23T15:28:20;96060.28;;;19.87;44.99
2761;BME280;15420;48.636;9.798;2023-03-23T15:30:52;96056.00;;;19.85;45.45
2761;BME280;15420;48.636;9.798;2023-03-23T15:33:26;96056.91;;;19.84;45.58
2761;BME280;15420;48.636;9.798;2023-03-23T15:35:55;96056.91;;;19.84;45.37
2761;BME280;15420;48.636;9.798;2023-03-23T15:38:30;96062.16;;;19.82;45.14
2761;BME280;15420;48.636;9.798;2023-03-23T15:41:02;96060.44;;;19.81;45.18
2761;BME280;15420;48.636;9.798;2023-03-23T15:43:37;96060.41;;;19.83;45.42
2761;BME280;15420;48.636;9.798;2023-03-23T15:46:22;96058.72;;;19.80;46.15
2761;BME280;15420;48.636;9.798;2023-03-23T15:51:25;96064.94;;;19.76;46.50
2761;BME280;15420;48.636;9.798;2023-03-23T15:53:53;96058.94;;;19.74;46.04
2761;BME280;15420;48.636;9.798;2023-03-23T15:56:20;96053.75;;;19.73;46.26